Cool Ridge Heights, Ohio
Current Conditions -  °F | °C
As of 1:52 PM on Thursday 18 Dec 2014 (Local Time) from KMFD Reporting Station
Overcast Overcast  
Wind Chill: 18°   Ceiling: 1200
Heat Index: 27°   Visibility: 10mi
Dew Point: 22°   Wind: 9mph
Humidity: 81%   Direction: 250°WSW
Pressure: 30.16"   Gusts: NA
Location:  40.7762°N, 82.4707°W
Report Text: KMFD 181852Z 25008KT 10SM OVC012 M03/M06 A3016 RMK AO2 SLP231 T10281056
Loading
Personal Weather Stations






























Interactive Weather Map New forecast layout! Learn more

10-Day Weather Forecast

Advertisements
Track Severe Weather on mobile